sensor_id;sensor_type;location;lat;lon;timestamp;P1;P2;P0
84646;PMS5003;74876;52.404;16.896;2024-02-26T00:00:09;60.675113151625645;58.91641421969447;29.897881842830028
84646;PMS5003;74876;52.404;16.896;2024-02-26T00:15:09;57.16021731802979;55.42808952051374;28.580108659014893
84646;PMS5003;74876;52.404;16.896;2024-02-26T00:30:09;77.92034680092017;72.83858505303408;30.49057048731659
84646;PMS5003;74876;52.404;16.896;2024-02-26T00:45:09;78.71348727372303;75.36397717696886;45.218386306181316
84646;PMS5003;74876;52.404;16.896;2024-02-26T01:00:09;99.73542239870615;82.13505374011093;35.2007373171904
84646;PMS5003;74876;52.404;16.896;2024-02-26T01:15:09;79.86625886582209;68.33916995735292;32.93453973848334
84646;PMS5003;74876;52.404;16.896;2024-02-26T01:30:09;78.33052379778344;69.35515127928743;35.90149007398408
84646;PMS5003;74876;52.404;16.896;2024-02-26T01:50:10;86.95894689555486;74.76844032141165;32.508017531048544
84646;PMS5003;74876;52.404;16.896;2024-02-26T02:05:10;70.15656191963089;59.55150023410529;26.92054120171883
84646;PMS5003;74876;52.404;16.896;2024-02-26T02:20:10;64.33128205264609;61.94864197662216;36.53381449903358
84646;PMS5003;74876;52.404;16.896;2024-02-26T02:35:10;74.51605965158247;67.30482807239706;28.043678363498774
84646;PMS5003;74876;52.404;16.896;2024-02-26T02:55:09;78.23470248572761;73.39544253815683;26.61592971163929
84646;PMS5003;74876;52.404;16.896;2024-02-26T03:10:09;72.8924597912308;62.363548932497466;32.39664879610258
84646;PMS5003;74876;52.404;16.896;2024-02-26T03:25:09;58.78557056024043;53.953879829261766;23.35317186639688
84646;PMS5003;74876;52.404;16.896;2024-02-26T03:40:09;60.54446829948183;54.893651258196854;25.832306474445577
84646;PMS5003;74876;52.404;16.896;2024-02-26T04:00:10;59.12614299439722;59.12614299439722;23.970057970701575
84646;PMS5003;74876;52.404;16.896;2024-02-26T04:15:10;55.400861409173494;50.58339519968015;24.087331047466737
84646;PMS5003;74876;52.404;16.896;2024-02-26T04:30:09;61.86652771389083;55.43883652283724;22.496919168687576
84646;PMS5003;74876;52.404;16.896;2024-02-26T04:45:09;54.25491345072294;47.87198245652024;25.531723976810795
84646;PMS5003;74876;52.404;16.896;2024-02-26T05:00:09;57.183361824574305;54.80072174855037;27.003254194937867
84646;PMS5003;74876;52.404;16.896;2024-02-26T05:15:09;55.27689074617357;51.32854140716117;26.059105637481824
84646;PMS5003;74876;52.404;16.896;2024-02-26T05:30:09;53.079107266885615;44.49278109136;18.733802564783158
84646;PMS5003;74876;52.404;16.896;2024-02-26T05:45:09;66.19808337963995;56.19139635713624;26.171335289625098
84646;PMS5003;74876;52.404;16.896;2024-02-26T06:00:09;67.87808396395057;59.39332346845675;24.682939623254754
84646;PMS5003;74876;52.404;16.896;2024-02-26T06:15:09;70.60388589536937;56.02264859089092;27.62760752427497
84646;PMS5003;74876;52.404;16.896;2024-02-26T06:30:09;65.99358236542194;55.37392543305519;25.032048483435908
84646;PMS5003;74876;52.404;16.896;2024-02-26T06:45:09;74.948255921829;67.37772502063416;26.49685815418197
84646;PMS5003;74876;52.404;16.896;2024-02-26T07:00:09;58.40811312801712;56.891019280536156;24.273501559695426
84646;PMS5003;74876;52.404;16.896;2024-02-26T07:15:09;72.63306972669416;63.26106072970136;32.80203148947478
84646;PMS5003;74876;52.404;16.896;2024-02-26T07:30:09;74.0300555656539;70.73983087384705;32.9022469180684
84646;PMS5003;74876;52.404;16.896;2024-02-26T07:45:09;79.59281374521535;77.91717556110557;33.51276368219594
84646;PMS5003;74876;52.404;16.896;2024-02-26T08:05:10;85.25700725976834;69.59755694674966;34.79877847337483
84646;PMS5003;74876;52.404;16.896;2024-02-26T08:20:09;70.54939324524398;67.8703023625132;34.828181475500195
84646;PMS5003;74876;52.404;16.896;2024-02-26T08:35:09;85.66539758142086;76.64798730969235;39.676605195605454
84646;PMS5003;74876;52.404;16.896;2024-02-26T08:50:09;66.29981979697058;66.29981979697058;31.308248237458333
84646;PMS5003;74876;52.404;16.896;2024-02-26T09:05:09;63.01749990493774;56.530404326488274;30.582022012690377
84646;PMS5003;74876;52.404;16.896;2024-02-26T09:20:09;55.45899884643796;55.45899884643796;29.139473970162317
84646;PMS5003;74876;52.404;16.896;2024-02-26T09:35:09;61.35449557147933;61.35449557147933;27.801255805826575
84646;PMS5003;74876;52.404;16.896;2024-02-26T09:50:09;47.69735284640542;45.750522117980715;26.2822148337336
84646;PMS5003;74876;52.404;16.896;2024-02-26T10:05:09;60.59583101086352;57.61570817426368;21.854234135065532
84646;PMS5003;74876;52.404;16.896;2024-02-26T10:20:09;42.375876732705;42.375876732705;22.196887812369287
84646;PMS5003;74876;52.404;16.896;2024-02-26T10:35:09;42.91807824408535;42.91807824408535;25.5464751452889
84646;PMS5003;74876;52.404;16.896;2024-02-26T10:50:09;47.442334507198254;47.442334507198254;22.139756103359183
84646;PMS5003;74876;52.404;16.896;2024-02-26T11:05:09;40.077169651263496;40.077169651263496;23.82966844129181
84646;PMS5003;74876;52.404;16.896;2024-02-26T11:20:09;50.44089840676025;43.86165078848717;20.834284124531404
84646;PMS5003;74876;52.404;16.896;2024-02-26T11:35:09;35.477500245523316;35.477500245523316;21.064765770779466
84646;PMS5003;74876;52.404;16.896;2024-02-26T11:50:09;37.773646968023805;37.773646968023805;21.108802717425068
84646;PMS5003;74876;52.404;16.896;2024-02-26T12:05:09;33.59661359454703;33.59661359454703;21.277855276546454
84646;PMS5003;74876;52.404;16.896;2024-02-26T12:20:09;40.642234994199654;38.38433305007745;20.321117497099827
84646;PMS5003;74876;52.404;16.896;2024-02-26T12:35:09;45.36796858448084;43.0995701552568;21.5497850776284
84646;PMS5003;74876;52.404;16.896;2024-02-26T12:50:09;44.23493814150066;39.69802140903906;23.818812845423434
84646;PMS5003;74876;52.404;16.896;2024-02-26T13:05:09;57.599967073677654;40.65880028730187;20.329400143650936
84646;PMS5003;74876;52.404;16.896;2024-02-26T13:20:10;37.26449688699267;37.26449688699267;21.45531638948063
84646;PMS5003;74876;52.404;16.896;2024-02-26T13:35:10;43.811913858372904;43.811913858372904;19.09750091262409
84646;PMS5003;74876;52.404;16.896;2024-02-26T13:50:10;38.005012627144104;38.005012627144104;20.1203008026057
84646;PMS5003;74876;52.404;16.896;2024-02-26T14:05:10;43.133478395775995;38.70953189364513;21.01374588512164
84646;PMS5003;74876;52.404;16.896;2024-02-26T14:20:10;43.966904740474796;39.570214266427314;21.983452370237398
84646;PMS5003;74876;52.404;16.896;2024-02-26T14:35:10;29.574640662735213;29.574640662735213;16.430355923741786
84646;PMS5003;74876;52.404;16.896;2024-02-26T14:50:09;30.614312893901786;30.614312893901786;17.493893082229594
84646;PMS5003;74876;52.404;16.896;2024-02-26T15:05:09;39.17184549412976;33.731311397722855;17.409709108502117
84646;PMS5003;74876;52.404;16.896;2024-02-26T15:20:09;36.75331292690322;33.510373550999994;15.133717087548385
84646;PMS5003;74876;52.404;16.896;2024-02-26T15:35:09;35.381036726909166;35.381036726909166;21.44305256176313
84646;PMS5003;74876;52.404;16.896;2024-02-26T15:50:09;43.62650546886341;37.2421388148834;20.2171610709367
84646;PMS5003;74876;52.404;16.896;2024-02-26T16:05:09;51.779393071769164;40.15544768831078;22.191168459329642
84646;PMS5003;74876;52.404;16.896;2024-02-26T16:20:09;43.17095750239558;36.85325640448403;20.006053476719902
84646;PMS5003;74876;52.404;16.896;2024-02-26T16:35:09;34.58314782623667;34.58314782623667;16.767586824842024
84646;PMS5003;74876;52.404;16.896;2024-02-26T16:50:09;42.78439600864609;42.78439600864609;20.870437077388335
84646;PMS5003;74876;52.404;16.896;2024-02-26T17:05:09;25.982492454421312;22.864593359890755;12.471596378122229
84646;PMS5003;74876;52.404;16.896;2024-02-26T17:20:09;40.20400662063953;35.04964679748062;11.339591610949611
84646;PMS5003;74876;52.404;16.896;2024-02-26T17:35:09;39.73846961948586;39.73846961948586;22.41657260586382
84646;PMS5003;74876;52.404;16.896;2024-02-26T17:50:09;33.46133428885935;33.46133428885935;13.181737750156714
84646;PMS5003;74876;52.404;16.896;2024-02-26T18:05:09;33.34087185075219;33.34087185075219;14.144612300319109
84646;PMS5003;74876;52.404;16.896;2024-02-26T18:20:09;30.260167575530023;30.260167575530023;17.147428292800345
84646;PMS5003;74876;52.404;16.896;2024-02-26T18:35:09;34.21132824512016;29.180250562014255;19.118095195802443
84646;PMS5003;74876;52.404;16.896;2024-02-26T18:50:09;33.08341277091716;33.08341277091716;16.040442555596197
84646;PMS5003;74876;52.404;16.896;2024-02-26T19:05:09;35.03208929036267;35.03208929036267;19.01741990048259
84646;PMS5003;74876;52.404;16.896;2024-02-26T19:20:09;41.95312698548702;32.963171202882656;13.984375661829006
84646;PMS5003;74876;52.404;16.896;2024-02-26T19:35:09;44.90763240971289;44.90763240971289;16.965105577002646
84646;PMS5003;74876;52.404;16.896;2024-02-26T19:50:10;42.647607929697365;40.66399825854865;18.844291875912788
84646;PMS5003;74876;52.404;16.896;2024-02-26T20:05:09;23.302185675351016;23.302185675351016;12.622017240815135
84646;PMS5003;74876;52.404;16.896;2024-02-26T20:20:10;46.00194935648968;41.210079631855336;21.084226788391103
84646;PMS5003;74876;52.404;16.896;2024-02-26T20:35:09;32.257942431007685;32.257942431007685;15.180208202827144
84646;PMS5003;74876;52.404;16.896;2024-02-26T20:50:10;32.73415150945586;32.73415150945586;20.575752377372254
84646;PMS5003;74876;52.404;16.896;2024-02-26T21:05:09;43.828354292651916;40.0982815868943;17.717845352348647
84646;PMS5003;74876;52.404;16.896;2024-02-26T21:30:10;48.99188611462607;48.99188611462607;15.71437856506874
84646;PMS5003;74876;52.404;16.896;2024-02-26T21:45:10;42.569538310768074;42.569538310768074;22.210193901270298
84646;PMS5003;74876;52.404;16.896;2024-02-26T22:00:10;47.15207892938629;41.60477552592908;24.03831474831458
84646;PMS5003;74876;52.404;16.896;2024-02-26T22:15:10;56.30092744165609;51.68609732348756;22.151184567208954
84646;PMS5003;74876;52.404;16.896;2024-02-26T22:35:09;46.03258598636085;40.508675667997544;18.41303439454434
84646;PMS5003;74876;52.404;16.896;2024-02-26T22:50:09;40.46915006921197;37.709889837220246;18.39506821327817
84646;PMS5003;74876;52.404;16.896;2024-02-26T23:05:09;54.86701370457888;46.63696164889205;20.117905025012256
84646;PMS5003;74876;52.404;16.896;2024-02-26T23:20:09;54.66453326022992;49.19807993420693;20.04366219541764
84646;PMS5003;74876;52.404;16.896;2024-02-26T23:40:10;49.84522618555214;43.50128830739096;16.31298311527161
84646;PMS5003;74876;52.404;16.896;2024-02-26T23:55:10;45.27971317271189;45.27971317271189;20.82866805944747
